createdAt,value
2023-03-24T00:02:11.313Z,66.64
2023-03-24T00:04:42.691Z,66.78
2023-03-24T00:07:14.432Z,66.92
2023-03-24T00:09:42.087Z,66.96
2023-03-24T00:12:10.233Z,67.00
2023-03-24T00:14:38.733Z,67.03
2023-03-24T00:17:05.982Z,67.05
2023-03-24T00:19:33.964Z,67.16
2023-03-24T00:22:01.225Z,67.25
2023-03-24T00:24:28.506Z,67.21
2023-03-24T00:26:57.930Z,67.21
2023-03-24T00:29:25.921Z,67.27
2023-03-24T00:31:53.314Z,67.27
2023-03-24T00:34:21.704Z,67.34
2023-03-24T00:36:49.982Z,67.29
2023-03-24T00:39:17.969Z,67.35
2023-03-24T00:41:45.982Z,67.36
2023-03-24T00:44:18.268Z,67.30
2023-03-24T00:46:55.542Z,67.39
2023-03-24T00:49:42.145Z,67.47
2023-03-24T00:52:12.080Z,67.45
2023-03-24T00:54:39.991Z,67.58
2023-03-24T00:57:08.106Z,67.44
2023-03-24T00:59:42.385Z,67.59
2023-03-24T01:02:12.333Z,67.57
2023-03-24T01:04:41.109Z,67.68
2023-03-24T01:07:11.016Z,67.76
2023-03-24T01:09:38.332Z,67.81
2023-03-24T01:12:07.170Z,67.71
2023-03-24T01:14:34.850Z,67.96
2023-03-24T01:17:03.711Z,67.94
2023-03-24T01:19:33.251Z,68.20
2023-03-24T01:22:00.685Z,68.14
2023-03-24T01:24:28.166Z,68.26
2023-03-24T01:26:55.270Z,68.39
2023-03-24T01:29:22.427Z,68.60
2023-03-24T01:31:49.694Z,68.59
2023-03-24T01:34:17.100Z,68.78
2023-03-24T01:36:44.279Z,68.87
2023-03-24T01:39:11.846Z,68.97
2023-03-24T01:41:42.460Z,69.01
2023-03-24T01:44:27.487Z,68.96
2023-03-24T01:46:54.668Z,69.10
2023-03-24T01:49:23.651Z,69.23
2023-03-24T01:51:53.786Z,69.32
2023-03-24T01:54:27.548Z,69.30
2023-03-24T01:57:10.231Z,69.35
2023-03-24T01:59:42.300Z,69.34
2023-03-24T02:02:14.574Z,69.31
2023-03-24T02:04:56.093Z,69.42
2023-03-24T02:07:33.215Z,69.53
2023-03-24T02:10:01.192Z,69.53
2023-03-24T02:12:28.445Z,69.42
2023-03-24T02:14:56.730Z,69.48
2023-03-24T02:17:41.191Z,69.53
2023-03-24T02:20:47.897Z,69.54
2023-03-24T02:23:39.119Z,69.68
2023-03-24T02:26:42.697Z,69.89
2023-03-24T02:29:40.272Z,69.92
2023-03-24T02:32:36.087Z,70.00
2023-03-24T02:35:20.953Z,70.18
2023-03-24T02:38:16.403Z,70.25
2023-03-24T02:40:48.287Z,70.30
2023-03-24T02:43:27.029Z,70.36
2023-03-24T02:46:13.609Z,70.48
2023-03-24T02:48:50.520Z,70.63
2023-03-24T02:51:24.854Z,70.64
2023-03-24T02:54:03.320Z,70.75
2023-03-24T02:56:38.089Z,70.75
2023-03-24T02:59:18.124Z,70.72
2023-03-24T03:01:54.676Z,70.91
2023-03-24T03:05:01.076Z,70.93
2023-03-24T03:07:33.687Z,70.94
2023-03-24T03:10:06.627Z,71.03
2023-03-24T03:12:38.018Z,71.02
2023-03-24T03:15:11.498Z,71.08
2023-03-24T03:17:43.497Z,71.21
2023-03-24T03:20:17.754Z,71.33
2023-03-24T03:22:50.401Z,71.27
2023-03-24T03:25:22.857Z,71.44
2023-03-24T03:27:53.063Z,71.58
2023-03-24T03:30:25.036Z,71.88
2023-03-24T03:32:56.615Z,71.84
2023-03-24T03:35:30.759Z,71.89
2023-03-24T03:38:07.805Z,71.99
2023-03-24T03:40:42.859Z,72.13
2023-03-24T03:43:15.644Z,72.34
2023-03-24T03:45:43.331Z,72.30
2023-03-24T03:48:11.837Z,72.33
2023-03-24T03:50:40.206Z,72.35
2023-03-24T03:53:08.481Z,72.47
2023-03-24T03:55:36.660Z,72.53
2023-03-24T03:58:04.872Z,72.57
2023-03-24T04:00:40.458Z,72.53
2023-03-24T04:03:44.551Z,72.60
2023-03-24T04:06:27.234Z,72.61
2023-03-24T04:09:04.438Z,72.58
2023-03-24T04:11:44.642Z,72.72
2023-03-24T04:14:49.768Z,72.82
2023-03-24T04:17:47.175Z,72.91
2023-03-24T04:20:26.181Z,73.01
2023-03-24T04:23:04.665Z,73.05
2023-03-24T04:25:41.197Z,73.12
2023-03-24T04:28:21.818Z,73.35
2023-03-24T04:30:52.376Z,73.28
2023-03-24T04:33:29.147Z,73.33
2023-03-24T04:36:06.684Z,73.33
2023-03-24T04:38:41.782Z,73.22
2023-03-24T04:41:37.926Z,73.09
2023-03-24T04:44:13.547Z,73.12
2023-03-24T04:46:56.172Z,73.14
2023-03-24T04:49:43.638Z,73.15
2023-03-24T04:52:12.355Z,73.24
2023-03-24T04:54:50.975Z,73.25
2023-03-24T04:57:21.625Z,73.37
2023-03-24T04:59:52.844Z,73.31
2023-03-24T05:02:21.882Z,73.13
2023-03-24T05:05:14.745Z,73.06
2023-03-24T05:07:45.925Z,73.00
2023-03-24T05:10:14.836Z,72.85
2023-03-24T05:12:46.997Z,72.80
2023-03-24T05:15:20.656Z,72.72
2023-03-24T05:17:51.951Z,72.55
2023-03-24T05:20:19.946Z,72.22
2023-03-24T05:22:49.984Z,72.05
2023-03-24T05:25:17.385Z,71.70
2023-03-24T05:27:44.874Z,71.47
2023-03-24T05:30:24.423Z,71.14
2023-03-24T05:32:54.507Z,70.97
2023-03-24T05:35:21.779Z,70.77
2023-03-24T05:37:49.426Z,70.70
2023-03-24T05:40:16.982Z,70.71
2023-03-24T05:42:54.878Z,70.75
2023-03-24T05:45:25.265Z,70.69
2023-03-24T05:47:52.782Z,70.74
2023-03-24T05:50:24.938Z,70.83
2023-03-24T05:52:52.739Z,70.81
2023-03-24T05:55:42.062Z,70.88
2023-03-24T05:58:28.734Z,71.19
2023-03-24T06:00:57.933Z,71.42
2023-03-24T06:03:34.800Z,71.54
2023-03-24T06:06:15.000Z,71.59
2023-03-24T06:08:45.203Z,71.75
2023-03-24T06:11:13.859Z,71.90
2023-03-24T06:13:49.232Z,72.06
2023-03-24T06:16:18.977Z,72.07
2023-03-24T06:18:56.141Z,72.05
2023-03-24T06:21:42.375Z,72.15
2023-03-24T06:24:10.939Z,72.19
2023-03-24T06:26:38.386Z,72.34
2023-03-24T06:29:05.850Z,72.33
2023-03-24T06:31:36.221Z,72.26
2023-03-24T06:34:03.563Z,72.07
2023-03-24T06:36:31.788Z,72.08
2023-03-24T06:38:59.071Z,71.93
2023-03-24T06:41:26.775Z,71.89
2023-03-24T06:43:59.071Z,71.94
2023-03-24T06:46:26.384Z,71.92
2023-03-24T06:48:53.883Z,71.96
2023-03-24T06:51:21.724Z,71.96
2023-03-24T06:53:49.041Z,72.03
2023-03-24T06:56:20.032Z,72.03
2023-03-24T06:58:52.002Z,72.09
2023-03-24T07:01:26.345Z,72.22
2023-03-24T07:04:17.236Z,72.16
2023-03-24T07:07:44.883Z,72.29
2023-03-24T07:10:18.446Z,72.34
2023-03-24T07:12:45.973Z,72.33
2023-03-24T07:15:17.613Z,72.51
2023-03-24T07:17:45.975Z,72.43
2023-03-24T07:20:52.321Z,72.43
2023-03-24T07:23:21.574Z,72.32
2023-03-24T07:25:53.049Z,72.41
2023-03-24T07:28:49.247Z,72.27
2023-03-24T07:31:41.106Z,72.25
2023-03-24T07:34:12.569Z,72.32
2023-03-24T07:36:40.602Z,72.34
2023-03-24T07:39:11.638Z,72.33
2023-03-24T07:41:39.095Z,72.43
2023-03-24T07:44:13.418Z,72.36
2023-03-24T07:46:45.821Z,72.47
2023-03-24T07:49:19.430Z,72.57
2023-03-24T07:52:13.474Z,72.94
2023-03-24T07:54:43.902Z,73.09
2023-03-24T07:57:15.908Z,73.29
2023-03-24T07:59:43.532Z,73.54
2023-03-24T08:02:20.332Z,73.64
2023-03-24T08:05:14.949Z,73.86
2023-03-24T08:08:14.606Z,74.11
2023-03-24T08:11:02.542Z,74.42
2023-03-24T08:13:30.203Z,74.58
2023-03-24T08:15:58.089Z,74.70
2023-03-24T08:18:35.302Z,75.27
2023-03-24T08:21:02.926Z,75.41
2023-03-24T08:23:50.762Z,75.61
2023-03-24T08:26:27.021Z,76.03
2023-03-24T08:28:54.784Z,75.90
2023-03-24T08:31:34.496Z,75.90
2023-03-24T08:34:02.193Z,76.17
2023-03-24T08:36:32.110Z,76.31
2023-03-24T08:39:01.667Z,76.35
2023-03-24T08:41:35.416Z,76.38
2023-03-24T08:44:08.569Z,76.34
2023-03-24T08:46:38.903Z,76.67
2023-03-24T08:49:06.392Z,76.66
2023-03-24T08:51:34.939Z,77.06
2023-03-24T08:54:03.774Z,77.17
2023-03-24T08:56:31.456Z,77.08
2023-03-24T08:58:59.388Z,77.08
2023-03-24T09:01:27.705Z,77.29
2023-03-24T09:03:55.026Z,77.34
2023-03-24T09:06:22.175Z,77.21
2023-03-24T09:08:57.651Z,76.91
2023-03-24T09:11:25.708Z,76.66
2023-03-24T09:13:53.348Z,76.21
2023-03-24T09:16:22.086Z,75.94
2023-03-24T09:18:49.378Z,75.49
2023-03-24T09:21:17.158Z,73.56
2023-03-24T09:23:44.654Z,71.60
2023-03-24T09:26:11.993Z,69.46
2023-03-24T09:28:39.144Z,68.25
2023-03-24T09:31:08.202Z,67.30
2023-03-24T09:33:35.907Z,67.00
2023-03-24T09:36:05.947Z,66.27
2023-03-24T09:38:35.421Z,65.40
2023-03-24T09:41:04.192Z,65.77
2023-03-24T09:43:37.278Z,64.98
2023-03-24T09:46:12.545Z,64.07
2023-03-24T09:48:46.941Z,62.86
2023-03-24T09:51:22.258Z,62.77
2023-03-24T09:53:55.934Z,63.27
2023-03-24T09:56:34.327Z,63.84
2023-03-24T09:59:08.266Z,64.28
2023-03-24T10:01:37.098Z,64.17
2023-03-24T10:04:05.801Z,64.77
2023-03-24T10:06:38.927Z,64.83
2023-03-24T10:09:22.959Z,64.95
2023-03-24T10:12:00.531Z,64.26
2023-03-24T10:14:54.656Z,64.45
2023-03-24T10:17:31.751Z,64.60
2023-03-24T10:20:07.897Z,64.57
2023-03-24T10:22:41.202Z,64.60
2023-03-24T10:25:17.036Z,64.89
2023-03-24T10:27:48.774Z,65.01
2023-03-24T10:30:19.468Z,65.03
2023-03-24T10:32:47.490Z,65.14
2023-03-24T10:35:20.918Z,65.37
2023-03-24T10:37:49.164Z,65.41
2023-03-24T10:40:22.428Z,65.27
2023-03-24T10:43:07.358Z,65.41
2023-03-24T10:45:41.406Z,65.39
2023-03-24T10:48:14.292Z,65.43
2023-03-24T10:50:46.436Z,65.35
2023-03-24T10:53:20.863Z,65.18
2023-03-24T10:55:51.104Z,65.18
2023-03-24T10:58:29.323Z,65.01
2023-03-24T11:00:58.257Z,64.77
2023-03-24T11:03:32.255Z,64.88
2023-03-24T11:06:03.935Z,64.71
2023-03-24T11:08:42.219Z,64.60
2023-03-24T11:11:31.096Z,64.60
2023-03-24T11:14:02.894Z,64.44
2023-03-24T11:16:33.044Z,64.45
2023-03-24T11:19:03.115Z,64.23
2023-03-24T11:21:32.662Z,64.27
2023-03-24T11:24:04.054Z,63.70
2023-03-24T11:26:35.896Z,64.00
2023-03-24T11:29:07.803Z,64.15
2023-03-24T11:31:38.515Z,64.04
2023-03-24T11:34:12.085Z,64.15
2023-03-24T11:36:52.952Z,63.95
2023-03-24T11:39:24.370Z,63.68
2023-03-24T11:42:03.140Z,63.80
2023-03-24T11:44:43.035Z,63.60
2023-03-24T11:47:14.798Z,63.66
2023-03-24T11:49:47.798Z,63.55
2023-03-24T11:52:23.018Z,63.53
2023-03-24T11:54:50.394Z,63.40
2023-03-24T11:57:23.785Z,63.39
2023-03-24T11:59:58.418Z,63.41
2023-03-24T12:02:50.638Z,63.40
2023-03-24T12:05:35.419Z,63.53
2023-03-24T12:08:15.062Z,63.44
2023-03-24T12:11:06.511Z,63.30
2023-03-24T12:13:40.585Z,63.02
2023-03-24T12:16:32.244Z,62.91
2023-03-24T12:19:20.760Z,62.83
2023-03-24T12:21:59.688Z,62.61
2023-03-24T12:24:40.355Z,62.33
2023-03-24T12:27:15.962Z,61.73
2023-03-24T12:30:00.980Z,61.28
2023-03-24T12:32:57.769Z,60.59
2023-03-24T12:35:48.220Z,60.09
2023-03-24T12:38:35.433Z,59.41
2023-03-24T12:41:24.931Z,59.19
2023-03-24T12:44:06.092Z,57.78
2023-03-24T12:46:47.578Z,55.23
2023-03-24T12:49:31.423Z,56.30
2023-03-24T12:52:16.893Z,56.10
2023-03-24T12:54:53.291Z,55.69
2023-03-24T12:57:24.218Z,55.08
2023-03-24T12:59:59.403Z,53.46
2023-03-24T13:02:32.287Z,54.17
2023-03-24T13:05:05.728Z,53.87
2023-03-24T13:07:39.439Z,54.21
2023-03-24T13:10:15.551Z,54.10
2023-03-24T13:12:47.093Z,53.92
2023-03-24T13:15:22.533Z,53.75
2023-03-24T13:17:54.559Z,54.08
2023-03-24T13:20:27.539Z,53.82
2023-03-24T13:22:56.747Z,53.62
2023-03-24T13:25:32.383Z,54.07
2023-03-24T13:28:06.047Z,54.07
2023-03-24T13:30:38.201Z,53.77
2023-03-24T13:33:11.987Z,53.60
2023-03-24T13:35:56.252Z,53.56
2023-03-24T13:38:33.722Z,53.54
2023-03-24T13:41:05.032Z,53.61
2023-03-24T13:43:35.031Z,53.69
2023-03-24T13:46:11.009Z,53.54
2023-03-24T13:48:41.986Z,53.58
2023-03-24T13:51:19.003Z,53.51
2023-03-24T13:53:51.748Z,53.54
2023-03-24T13:56:29.167Z,53.14
2023-03-24T13:59:25.465Z,53.31
2023-03-24T14:02:27.986Z,53.29
2023-03-24T14:05:09.386Z,53.05
2023-03-24T14:07:48.195Z,52.87
2023-03-24T14:10:43.165Z,52.82
2023-03-24T14:13:23.430Z,52.74
2023-03-24T14:15:53.197Z,52.37
2023-03-24T14:18:42.830Z,52.82
2023-03-24T14:21:11.382Z,52.82
2023-03-24T14:23:41.507Z,52.84
2023-03-24T14:26:13.662Z,52.52
2023-03-24T14:28:42.720Z,52.69
2023-03-24T14:31:26.592Z,52.36
2023-03-24T14:34:11.124Z,52.09
2023-03-24T14:36:41.615Z,52.73
2023-03-24T14:39:25.932Z,52.59
2023-03-24T14:41:53.496Z,52.12
2023-03-24T14:44:56.891Z,51.98
2023-03-24T14:47:29.176Z,52.28
2023-03-24T14:49:59.086Z,52.45
2023-03-24T14:52:30.344Z,52.64
2023-03-24T14:55:00.163Z,52.77
2023-03-24T14:57:30.161Z,52.65
2023-03-24T15:00:12.066Z,52.43
2023-03-24T15:02:42.106Z,52.65
2023-03-24T15:05:32.707Z,52.72
2023-03-24T15:08:08.620Z,52.72
2023-03-24T15:10:40.726Z,52.79
2023-03-24T15:13:25.757Z,52.76
2023-03-24T15:15:53.352Z,52.56
2023-03-24T15:18:22.339Z,52.71
2023-03-24T15:20:50.180Z,52.82
2023-03-24T15:23:22.346Z,52.60
2023-03-24T15:25:49.610Z,52.63
2023-03-24T15:28:23.128Z,52.48
2023-03-24T15:30:51.368Z,52.23
2023-03-24T15:33:19.246Z,52.54
2023-03-24T15:35:47.587Z,52.60
2023-03-24T15:38:28.705Z,52.63
2023-03-24T15:41:01.722Z,52.65
2023-03-24T15:43:29.184Z,52.64
2023-03-24T15:46:11.201Z,52.70
2023-03-24T15:48:41.206Z,52.81
2023-03-24T15:51:11.787Z,52.77
2023-03-24T15:53:44.895Z,52.44
2023-03-24T15:56:20.834Z,52.79
2023-03-24T15:59:08.211Z,52.72
2023-03-24T16:01:36.323Z,52.92
2023-03-24T16:04:06.195Z,52.77
2023-03-24T16:06:36.962Z,52.97
2023-03-24T16:09:06.746Z,52.98
2023-03-24T16:11:33.822Z,53.06
2023-03-24T16:14:02.564Z,53.28
2023-03-24T16:16:31.602Z,53.05
2023-03-24T16:18:59.585Z,53.23
2023-03-24T16:21:28.360Z,53.24
2023-03-24T16:23:57.474Z,53.55
2023-03-24T16:26:29.714Z,53.44
2023-03-24T16:29:01.827Z,53.65
2023-03-24T16:31:30.948Z,53.88
2023-03-24T16:33:59.441Z,53.94
2023-03-24T16:36:27.603Z,54.06
2023-03-24T16:38:55.976Z,54.00
2023-03-24T16:41:23.317Z,54.49
2023-03-24T16:43:50.437Z,54.96
2023-03-24T16:46:19.971Z,55.21
2023-03-24T16:48:47.566Z,55.62
2023-03-24T16:51:16.828Z,56.56
2023-03-24T16:53:45.709Z,58.13
2023-03-24T16:56:16.051Z,58.98
2023-03-24T16:58:43.391Z,59.69
2023-03-24T17:01:27.139Z,60.53
2023-03-24T17:03:56.045Z,61.55
2023-03-24T17:06:23.986Z,62.54
2023-03-24T17:08:51.342Z,63.56
2023-03-24T17:11:21.685Z,64.56
2023-03-24T17:13:48.871Z,65.38
2023-03-24T17:16:17.136Z,66.22
2023-03-24T17:18:44.550Z,66.97
2023-03-24T17:21:16.823Z,67.63
2023-03-24T17:23:47.149Z,68.36
2023-03-24T17:26:14.406Z,69.05
2023-03-24T17:28:45.244Z,69.59
2023-03-24T17:31:12.759Z,70.29
2023-03-24T17:33:40.167Z,70.50
2023-03-24T17:36:09.488Z,71.16
2023-03-24T17:38:37.832Z,71.55
2023-03-24T17:41:15.013Z,72.07
2023-03-24T17:43:42.347Z,72.55
2023-03-24T17:46:10.100Z,73.02
2023-03-24T17:48:37.869Z,73.55
2023-03-24T17:51:06.242Z,74.09
2023-03-24T17:53:33.992Z,74.61
2023-03-24T17:56:07.235Z,74.96
2023-03-24T17:58:36.566Z,75.38
2023-03-24T18:01:08.344Z,76.33
2023-03-24T18:03:38.296Z,77.49
2023-03-24T18:06:15.768Z,77.77
2023-03-24T18:08:43.983Z,78.46
2023-03-24T18:11:15.254Z,79.49
2023-03-24T18:13:43.222Z,79.20
2023-03-24T18:16:20.635Z,79.72
2023-03-24T18:18:50.108Z,80.02
2023-03-24T18:21:17.587Z,80.46
2023-03-24T18:23:46.752Z,80.55
2023-03-24T18:26:14.549Z,81.48
2023-03-24T18:28:42.582Z,81.34
2023-03-24T18:31:15.531Z,81.47
2023-03-24T18:33:43.065Z,81.64
2023-03-24T18:36:21.365Z,81.67
2023-03-24T18:38:51.861Z,81.73
2023-03-24T18:41:19.422Z,82.11
2023-03-24T18:43:47.581Z,82.37
2023-03-24T18:46:16.367Z,82.94
2023-03-24T18:48:45.077Z,82.59
2023-03-24T18:51:13.096Z,82.54
2023-03-24T18:53:43.484Z,82.50
2023-03-24T18:56:12.379Z,82.30
2023-03-24T18:58:40.055Z,81.94
2023-03-24T19:01:14.055Z,81.96
2023-03-24T19:03:43.026Z,81.48
2023-03-24T19:06:12.848Z,81.55
2023-03-24T19:08:51.884Z,81.72
2023-03-24T19:11:19.440Z,81.36
2023-03-24T19:13:50.768Z,81.41
2023-03-24T19:16:19.377Z,81.61
2023-03-24T19:18:48.725Z,81.42
2023-03-24T19:21:17.020Z,81.31
2023-03-24T19:23:45.048Z,81.41
2023-03-24T19:26:12.933Z,81.25
2023-03-24T19:28:40.234Z,81.68
2023-03-24T19:31:12.055Z,81.61
2023-03-24T19:33:40.007Z,81.70
2023-03-24T19:36:09.101Z,81.71
2023-03-24T19:38:37.336Z,81.71
2023-03-24T19:41:08.458Z,81.44
2023-03-24T19:43:36.993Z,81.73
2023-03-24T19:46:05.580Z,81.53
2023-03-24T19:48:33.650Z,81.96
2023-03-24T19:51:01.079Z,81.84
2023-03-24T19:53:29.505Z,81.97
2023-03-24T19:55:58.911Z,81.70
2023-03-24T19:58:26.931Z,81.80
2023-03-24T20:00:57.355Z,81.75
2023-03-24T20:03:25.309Z,82.00
2023-03-24T20:06:09.200Z,81.74
2023-03-24T20:08:36.837Z,81.86
2023-03-24T20:11:10.173Z,81.88
2023-03-24T20:13:37.509Z,81.80
2023-03-24T20:16:05.176Z,81.87
2023-03-24T20:18:33.638Z,81.77
2023-03-24T20:21:06.433Z,81.75
2023-03-24T20:23:33.760Z,82.20
2023-03-24T20:26:02.812Z,81.93
2023-03-24T20:28:30.417Z,81.69
2023-03-24T20:31:03.019Z,81.64
2023-03-24T20:33:30.946Z,81.58
2023-03-24T20:36:01.034Z,81.49
2023-03-24T20:38:28.536Z,81.35
2023-03-24T20:41:03.829Z,81.54
2023-03-24T20:43:34.994Z,81.87
2023-03-24T20:46:02.292Z,81.46
2023-03-24T20:48:29.477Z,81.22
2023-03-24T20:50:56.524Z,81.10
2023-03-24T20:53:25.022Z,81.08
2023-03-24T20:56:01.096Z,81.13
2023-03-24T20:58:28.692Z,81.04
2023-03-24T21:00:56.163Z,81.01
2023-03-24T21:03:24.082Z,81.01
2023-03-24T21:05:51.555Z,80.94
2023-03-24T21:08:18.873Z,80.77
2023-03-24T21:10:46.101Z,80.82
2023-03-24T21:13:13.299Z,80.68
2023-03-24T21:15:45.779Z,80.24
2023-03-24T21:18:13.287Z,80.20
2023-03-24T21:20:42.449Z,80.16
2023-03-24T21:23:10.099Z,79.93
2023-03-24T21:25:38.001Z,80.06
2023-03-24T21:28:06.118Z,80.18
2023-03-24T21:30:33.235Z,80.22
2023-03-24T21:33:02.096Z,79.93
2023-03-24T21:35:30.348Z,79.28
2023-03-24T21:37:57.462Z,78.57
2023-03-24T21:40:26.500Z,77.82
2023-03-24T21:42:54.460Z,77.29
2023-03-24T21:45:24.259Z,76.97
2023-03-24T21:47:55.410Z,76.82
2023-03-24T21:50:24.087Z,76.65
2023-03-24T21:52:51.669Z,76.43
2023-03-24T21:55:20.682Z,76.29
2023-03-24T21:57:48.684Z,76.26
2023-03-24T22:00:19.586Z,76.29
2023-03-24T22:02:50.043Z,76.28
2023-03-24T22:05:19.448Z,76.20
2023-03-24T22:07:47.138Z,76.36
2023-03-24T22:10:15.570Z,76.55
2023-03-24T22:12:44.376Z,76.71
2023-03-24T22:15:14.066Z,76.66
2023-03-24T22:17:42.252Z,76.77
2023-03-24T22:20:12.391Z,76.71
2023-03-24T22:22:41.073Z,76.83
2023-03-24T22:25:10.611Z,76.88
2023-03-24T22:27:38.308Z,76.91
2023-03-24T22:30:06.999Z,77.04
2023-03-24T22:32:34.568Z,76.85
2023-03-24T22:35:02.174Z,76.82
2023-03-24T22:37:29.345Z,76.78
2023-03-24T22:39:56.532Z,76.58
2023-03-24T22:42:23.659Z,76.53
2023-03-24T22:44:50.774Z,76.48
2023-03-24T22:47:17.920Z,76.43
2023-03-24T22:49:45.073Z,76.19
2023-03-24T22:52:12.288Z,76.14
2023-03-24T22:54:40.408Z,76.29
2023-03-24T22:57:07.795Z,76.30
2023-03-24T22:59:35.729Z,76.38
2023-03-24T23:02:09.977Z,76.47
2023-03-24T23:04:40.619Z,76.67
2023-03-24T23:07:08.215Z,76.68
2023-03-24T23:09:36.626Z,76.82
2023-03-24T23:12:04.267Z,76.77
2023-03-24T23:14:31.890Z,76.73
2023-03-24T23:16:59.012Z,76.86
2023-03-24T23:19:26.141Z,76.91
2023-03-24T23:21:53.561Z,76.99
2023-03-24T23:24:20.674Z,77.01
2023-03-24T23:26:47.905Z,77.11
2023-03-24T23:29:17.968Z,77.10
2023-03-24T23:31:45.048Z,77.13
2023-03-24T23:34:13.754Z,77.22
2023-03-24T23:36:45.172Z,77.36
2023-03-24T23:39:12.587Z,77.36
2023-03-24T23:41:39.797Z,77.46
2023-03-24T23:44:07.200Z,77.55
2023-03-24T23:46:34.391Z,77.69
2023-03-24T23:49:01.559Z,77.83
2023-03-24T23:51:29.174Z,77.83
2023-03-24T23:53:56.302Z,78.00
2023-03-24T23:56:23.383Z,77.95
2023-03-24T23:58:50.527Z,78.03
